Time;durP1;ratioP1;P1;durP2;ratioP2;P2;SDS_P1;SDS_P2;PMS_P1;PMS_P2;Temp;Humidity;BMP_temperature;BMP_pressure;BME280_temperature;BME280_humidity;BME280_pressure;Samples;Min_cycle;Max_cycle;Signal;HPM_P1;HPM_P2
2022/12/25 00:00:11;;;;;;;561.67;30.92;;;4.70;99.90;;;;;;5064338;28;20070;-73
2022/12/25 00:02:57;;;;;;;465.40;27.50;;;4.70;99.90;;;;;;5062315;28;20045;-71
2022/12/25 00:05:43;;;;;;;525.60;33.60;;;4.60;99.90;;;;;;5065517;28;20056;-72
2022/12/25 00:08:28;;;;;;;620.50;31.05;;;4.60;99.90;;;;;;5064992;28;20044;-75
2022/12/25 00:11:17;;;;;;;491.42;34.78;;;4.60;99.90;;;;;;5086247;28;20508;-74
2022/12/25 00:14:03;;;;;;;549.42;38.70;;;4.60;99.90;;;;;;5064861;28;20131;-73
2022/12/25 00:16:48;;;;;;;186.20;30.80;;;4.60;99.90;;;;;;5062375;28;20066;-73
2022/12/25 00:19:34;;;;;;;132.32;31.17;;;4.70;99.90;;;;;;5067214;28;20036;-72
2022/12/25 00:22:20;;;;;;;127.63;31.13;;;4.70;99.90;;;;;;5063327;28;20189;-71
2022/12/25 00:25:07;;;;;;;120.07;30.40;;;4.90;99.90;;;;;;5065977;28;20052;-72
2022/12/25 00:27:53;;;;;;;147.57;29.50;;;4.90;99.90;;;;;;5063141;28;20044;-72
2022/12/25 00:30:39;;;;;;;176.07;31.77;;;5.00;99.90;;;;;;5059373;28;20521;-72
2022/12/25 00:33:25;;;;;;;170.93;31.92;;;5.10;99.90;;;;;;5066186;28;20048;-72
2022/12/25 00:36:13;;;;;;;156.90;30.75;;;5.10;99.90;;;;;;5064841;28;20490;-74
2022/12/25 00:38:59;;;;;;;173.52;31.15;;;5.10;99.90;;;;;;5067196;28;20051;-72
2022/12/25 00:44:49;;;;;;;202.80;34.22;;;5.20;99.90;;;;;;5065409;28;20086;-73
2022/12/25 00:47:35;;;;;;;245.60;34.60;;;5.20;99.90;;;;;;5062542;28;20048;-72
2022/12/25 00:50:21;;;;;;;272.48;31.67;;;5.20;99.90;;;;;;5061758;28;20139;-72
2022/12/25 00:53:07;;;;;;;385.40;32.35;;;5.20;99.90;;;;;;5069026;28;20040;-72
2022/12/25 00:56:02;;;;;;;591.83;39.28;;;5.20;99.90;;;;;;5049035;28;20414;-72
2022/12/25 00:58:48;;;;;;;362.08;31.23;;;5.10;99.90;;;;;;5069198;28;20043;-72
2022/12/25 01:01:33;;;;;;;516.25;33.05;;;5.10;99.90;;;;;;5063201;28;20200;-72
2022/12/25 01:04:19;;;;;;;607.03;37.80;;;5.00;99.90;;;;;;5067887;28;20375;-72
2022/12/25 01:07:05;;;;;;;613.53;37.88;;;4.90;99.90;;;;;;5065098;28;20048;-72
2022/12/25 01:12:56;;;;;;;613.13;33.75;;;4.80;99.90;;;;;;5064721;28;20040;-72
2022/12/25 01:15:42;;;;;;;594.42;38.70;;;4.80;99.90;;;;;;5066366;28;20409;-72
2022/12/25 01:18:27;;;;;;;631.45;37.85;;;4.80;99.90;;;;;;5061714;28;20040;-72
2022/12/25 01:21:15;;;;;;;538.20;36.80;;;4.80;99.90;;;;;;5049750;28;20112;-72
2022/12/25 01:24:01;;;;;;;604.40;36.85;;;4.80;99.90;;;;;;5065633;28;20552;-72
2022/12/25 01:26:47;;;;;;;357.10;30.23;;;4.80;99.90;;;;;;5065321;28;20055;-72
2022/12/25 01:29:33;;;;;;;515.47;33.03;;;4.80;99.90;;;;;;5062480;28;20041;-73
2022/12/25 01:32:19;;;;;;;311.17;28.50;;;4.90;99.90;;;;;;5068832;28;20040;-74
2022/12/25 01:35:05;;;;;;;259.98;32.95;;;4.80;99.90;;;;;;5065122;28;20048;-72
2022/12/25 01:37:51;;;;;;;228.27;29.20;;;4.90;99.90;;;;;;5068766;28;20044;-73
2022/12/25 01:40:37;;;;;;;106.78;25.40;;;5.00;99.90;;;;;;5084335;28;20486;-73
2022/12/25 01:43:26;;;;;;;110.93;27.98;;;5.00;99.90;;;;;;5064831;28;20043;-74
2022/12/25 01:46:11;;;;;;;106.80;26.92;;;5.10;99.90;;;;;;5055904;28;20051;-75
2022/12/25 01:49:02;;;;;;;112.90;28.35;;;5.30;99.90;;;;;;5071926;28;20543;-73
2022/12/25 01:51:56;;;;;;;92.88;27.27;;;5.40;99.90;;;;;;5069154;28;20395;-75
2022/12/25 01:54:50;;;;;;;97.95;28.25;;;5.60;99.90;;;;;;5068684;28;20052;-74
2022/12/25 01:57:38;;;;;;;100.47;27.67;;;5.80;99.90;;;;;;5069568;28;20452;-73
2022/12/25 02:00:24;;;;;;;106.43;28.85;;;5.90;99.90;;;;;;5066596;28;20109;-74
2022/12/25 02:03:10;;;;;;;104.00;29.80;;;6.00;99.90;;;;;;5071156;28;20132;-73
2022/12/25 02:05:56;;;;;;;101.90;28.27;;;6.20;99.90;;;;;;5067717;28;20063;-73
2022/12/25 02:08:42;;;;;;;105.07;28.50;;;6.20;99.90;;;;;;5063866;28;20048;-73
2022/12/25 02:14:35;;;;;;;102.10;28.60;;;6.40;99.90;;;;;;5069477;28;20044;-72
2022/12/25 02:17:24;;;;;;;105.15;29.10;;;6.50;99.90;;;;;;5064432;28;20132;-72
2022/12/25 02:20:26;;;;;;;101.60;27.88;;;6.50;99.90;;;;;;5069942;28;20098;-72
2022/12/25 02:23:48;;;;;;;89.07;26.25;;;6.50;99.90;;;;;;5067304;28;20048;-74
2022/12/25 02:26:40;;;;;;;94.07;25.30;;;6.50;99.90;;;;;;5060628;28;20565;-72
2022/12/25 02:29:38;;;;;;;108.25;27.17;;;6.60;99.90;;;;;;5051408;28;20054;-74
2022/12/25 02:32:33;;;;;;;103.43;26.65;;;6.60;99.90;;;;;;5066728;28;20044;-73
2022/12/25 02:35:30;;;;;;;96.20;26.85;;;6.60;99.90;;;;;;5069723;28;20047;-73
2022/12/25 02:38:24;;;;;;;96.20;26.90;;;6.60;99.90;;;;;;5063863;28;20105;-73
2022/12/25 02:41:14;;;;;;;99.07;26.63;;;6.70;99.90;;;;;;5066927;28;20083;-73
2022/12/25 03:11:29;;;;;;;87.72;25.05;;;7.10;99.90;;;;;;5069092;28;20075;-71
2022/12/25 03:12:36;;;;;;;81.13;25.02;;;7.10;99.90;;;;;;5062248;28;20063;-72
2022/12/25 03:18:29;;;;;;;81.40;23.85;;;7.20;99.90;;;;;;5063421;28;20051;-71
2022/12/25 03:27:27;;;;;;;91.45;24.23;;;7.20;99.90;;;;;;5067317;28;20410;-72
2022/12/25 03:33:37;;;;;;;74.22;22.20;;;7.20;99.90;;;;;;5063693;28;20040;-71
2022/12/25 03:36:40;;;;;;;93.63;24.08;;;7.30;99.90;;;;;;5063768;28;20648;-71
2022/12/25 04:38:25;;;;;;;96.10;30.42;;;7.50;99.90;;;;;;5063719;28;20128;-71
2022/12/25 04:41:12;;;;;;;110.78;32.08;;;7.60;99.90;;;;;;5062892;28;20044;-70
2022/12/25 04:43:58;;;;;;;103.30;32.22;;;7.60;99.90;;;;;;5084291;28;20169;-72
2022/12/25 04:46:44;;;;;;;122.30;34.95;;;7.70;99.90;;;;;;5065306;28;20052;-72
2022/12/25 04:49:30;;;;;;;102.28;31.85;;;7.70;99.90;;;;;;5076967;28;20048;-71
2022/12/25 04:52:16;;;;;;;125.85;34.92;;;7.80;99.90;;;;;;5063244;28;20474;-71
2022/12/25 04:55:03;;;;;;;123.57;34.40;;;7.80;99.90;;;;;;5066714;28;20052;-73
2022/12/25 04:57:49;;;;;;;126.07;33.88;;;7.80;99.90;;;;;;5063116;28;20068;-71
2022/12/25 05:00:35;;;;;;;124.50;34.95;;;7.80;99.90;;;;;;5062256;28;20056;-71
2022/12/25 05:03:22;;;;;;;108.20;32.78;;;7.90;99.90;;;;;;5068823;28;20078;-70
2022/12/25 05:06:08;;;;;;;121.13;34.50;;;7.90;99.90;;;;;;5064813;28;20040;-71
2022/12/25 05:08:54;;;;;;;122.97;34.03;;;7.90;99.90;;;;;;5066831;28;20040;-71
2022/12/25 05:11:40;;;;;;;114.30;33.92;;;7.90;99.90;;;;;;5073237;28;20059;-71
2022/12/25 05:14:26;;;;;;;106.05;34.25;;;8.00;99.90;;;;;;5070605;28;20109;-71
2022/12/25 05:17:11;;;;;;;106.85;33.63;;;8.00;99.90;;;;;;5085846;28;20052;-71
2022/12/25 05:19:57;;;;;;;96.72;34.08;;;8.00;99.90;;;;;;5068096;28;20044;-71
2022/12/25 05:22:43;;;;;;;114.13;34.67;;;8.10;99.90;;;;;;5067409;28;20472;-71
2022/12/25 05:25:30;;;;;;;120.82;33.85;;;8.20;99.90;;;;;;5067344;28;20554;-71
2022/12/25 05:28:16;;;;;;;96.95;33.58;;;8.10;99.90;;;;;;5068513;28;20086;-71
2022/12/25 05:31:02;;;;;;;107.63;33.05;;;8.20;99.90;;;;;;5067381;28;20130;-74
2022/12/25 05:33:50;;;;;;;102.43;34.63;;;8.20;99.90;;;;;;5067675;28;20421;-71
2022/12/25 05:36:37;;;;;;;114.70;35.05;;;8.20;99.90;;;;;;5066726;28;20055;-71
2022/12/25 05:39:23;;;;;;;117.57;37.28;;;8.20;99.90;;;;;;5054083;28;20103;-71
2022/12/25 05:42:09;;;;;;;116.15;37.05;;;8.20;99.90;;;;;;5067445;28;20047;-71
2022/12/25 05:44:55;;;;;;;124.70;37.78;;;8.20;99.90;;;;;;5070774;28;20067;-71
2022/12/25 05:47:41;;;;;;;108.05;36.72;;;8.30;99.90;;;;;;5067622;28;20101;-71
2022/12/25 05:50:27;;;;;;;111.35;35.90;;;8.30;99.90;;;;;;5069111;28;20113;-71
2022/12/25 05:53:13;;;;;;;104.10;37.15;;;8.30;99.90;;;;;;5065551;28;20097;-72
2022/12/25 05:56:02;;;;;;;107.60;37.33;;;8.30;99.90;;;;;;5068634;28;20160;-73
2022/12/25 05:58:47;;;;;;;124.68;36.67;;;8.30;99.90;;;;;;5068723;28;20044;-71
2022/12/25 06:01:33;;;;;;;110.43;36.65;;;8.30;99.90;;;;;;5070806;28;20044;-72
2022/12/25 06:04:19;;;;;;;111.40;36.15;;;8.30;99.90;;;;;;5071433;28;20198;-71
2022/12/25 06:07:05;;;;;;;116.03;37.42;;;8.30;99.90;;;;;;5069433;28;20055;-72
2022/12/25 06:09:51;;;;;;;114.28;35.78;;;8.30;99.90;;;;;;5069695;28;20387;-71
2022/12/25 06:12:37;;;;;;;116.25;37.30;;;8.30;99.90;;;;;;5066417;28;20044;-72
2022/12/25 06:15:23;;;;;;;106.97;35.33;;;8.30;99.90;;;;;;5067661;28;20040;-72
2022/12/25 06:18:09;;;;;;;105.68;34.90;;;8.30;99.90;;;;;;5068887;28;20044;-73
2022/12/25 06:20:55;;;;;;;90.20;33.80;;;8.30;99.90;;;;;;5070699;28;20044;-72
2022/12/25 06:23:41;;;;;;;109.93;35.47;;;8.30;99.90;;;;;;5066072;28;20073;-75
2022/12/25 06:26:27;;;;;;;103.90;34.38;;;8.30;99.90;;;;;;5068190;28;20056;-72
2022/12/25 06:29:13;;;;;;;108.75;35.42;;;8.30;99.90;;;;;;5064432;28;20109;-72
2022/12/25 06:31:59;;;;;;;109.72;34.97;;;8.30;99.90;;;;;;5085529;28;20051;-72
2022/12/25 06:34:45;;;;;;;101.43;35.08;;;8.40;99.90;;;;;;5068987;28;20485;-71
2022/12/25 06:37:31;;;;;;;100.32;34.63;;;8.30;99.90;;;;;;5066177;28;20090;-72
2022/12/25 06:40:17;;;;;;;90.55;33.33;;;8.30;99.90;;;;;;5053694;28;20048;-71
2022/12/25 06:43:03;;;;;;;96.95;34.08;;;8.40;99.90;;;;;;5068403;28;20075;-73
2022/12/25 06:45:49;;;;;;;100.82;33.08;;;8.40;99.90;;;;;;5069766;28;20058;-71
2022/12/25 06:48:37;;;;;;;97.25;32.20;;;8.40;99.90;;;;;;5066486;28;20055;-72
2022/12/25 06:51:29;;;;;;;95.50;32.22;;;8.40;99.90;;;;;;5068492;28;20054;-72
2022/12/25 06:54:15;;;;;;;83.60;30.90;;;8.30;99.90;;;;;;5069680;28;20048;-71
2022/12/25 06:57:01;;;;;;;96.82;31.55;;;8.30;99.90;;;;;;5069839;28;20055;-71
2022/12/25 06:59:47;;;;;;;87.00;30.42;;;8.30;99.90;;;;;;5069250;28;20039;-73
2022/12/25 07:02:34;;;;;;;78.68;30.65;;;8.30;99.90;;;;;;5087327;28;20044;-71
2022/12/25 07:05:19;;;;;;;70.78;28.88;;;8.30;99.90;;;;;;5066663;28;20679;-71
2022/12/25 07:08:05;;;;;;;78.95;30.20;;;8.20;99.90;;;;;;5065138;28;20048;-72
2022/12/25 07:10:51;;;;;;;80.68;29.00;;;8.20;99.90;;;;;;5082537;28;20048;-72
2022/12/25 07:13:37;;;;;;;90.43;30.52;;;8.20;99.90;;;;;;5078750;28;20040;-74
